首页
METAR-TAF:

METAR-TAF

机场 :

雅库茨克, 俄罗斯

纬度: 62-01N, 经度: 129-43E, 海拔: 103米

当前天气观测

该预报发布于22分钟前的22:00 UTC
风速10节,风向北转西北
温度 -7°C
湿度 62%
气压 1015 hPa
能见度10公里或以上
1500米以下无云,无积雨云

METAR: UEEE 252200Z 34005MPS CAVOK M07/M13 Q1015 R23L/09//60 NOSIG RMK QFE752

时间: 07:22 (22:22 UTC)

预报

该预报发布于2小时和22分钟前的20:00 UTC
预报有效从25日的 21点(UTC)到 27日的 03点(UTC)
风速10节,风向西北,有时为19节阵风
能见度10公里或以上
1500米以下无云,无积雨云

TAF: UEEE 252000Z 2521/2703 32005G10MPS CAVOK

超过4000个机场的气象观测和天气预报(METAR&TAF报告)。

可查询的气象台以黄色和红色小点在地图上表示。

将鼠标移到小点上方,可查看气象台名称。

然后点击查看天气观测和预报。

如需切换地图:点击带黑十字的绿色按钮放大地图;点击带横线的绿色按钮缩小地图;或者点击绿色箭头查看邻近地区的地图。


METAR-TAF: